createdAt,value
2023-03-06T00:00:44.158Z,97487.63
2023-03-06T00:03:11.928Z,97487.28
2023-03-06T00:05:40.235Z,97482.38
2023-03-06T00:08:07.636Z,97491.72
2023-03-06T00:10:34.979Z,97493.53
2023-03-06T00:13:04.850Z,97482.63
2023-03-06T00:15:32.769Z,97489.94
2023-03-06T00:18:04.059Z,97488.34
2023-03-06T00:20:31.693Z,97488.22
2023-03-06T00:22:59.066Z,97494.81
2023-03-06T00:25:26.613Z,97500.84
2023-03-06T00:27:53.999Z,97494.25
2023-03-06T00:30:25.178Z,97495.03
2023-03-06T00:32:54.814Z,97486.75
2023-03-06T00:35:24.986Z,97493.44
2023-03-06T00:37:52.492Z,97486.84
2023-03-06T00:40:21.176Z,97489.25
2023-03-06T00:42:48.828Z,97485.28
2023-03-06T00:45:16.542Z,97484.25
2023-03-06T00:47:45.013Z,97490.94
2023-03-06T00:50:12.533Z,97485.03
2023-03-06T00:52:42.199Z,97493.44
2023-03-06T00:55:10.644Z,97486.09
2023-03-06T00:57:38.350Z,97486.19
2023-03-06T01:00:08.052Z,97489.47
2023-03-06T01:02:35.540Z,97489.47
2023-03-06T01:05:03.153Z,97491.09
2023-03-06T01:07:34.124Z,97493.44
2023-03-06T01:10:08.178Z,97491.84
2023-03-06T01:12:35.633Z,97485.38
2023-03-06T01:15:03.264Z,97485.75
2023-03-06T01:17:31.069Z,97489.38
2023-03-06T01:19:58.495Z,97486.09
2023-03-06T01:22:26.005Z,97485.41
2023-03-06T01:24:53.900Z,97491.19
2023-03-06T01:27:23.396Z,97492.00
2023-03-06T01:29:50.959Z,97493.81
2023-03-06T01:32:18.766Z,97498.25
2023-03-06T01:34:46.230Z,97507.44
2023-03-06T01:37:13.589Z,97496.88
2023-03-06T01:39:41.180Z,97497.00
2023-03-06T01:42:08.429Z,97498.13
2023-03-06T01:44:37.447Z,97498.38
2023-03-06T01:47:05.018Z,97499.28
2023-03-06T01:49:36.849Z,97498.59
2023-03-06T01:52:09.056Z,97502.03
2023-03-06T01:54:40.748Z,97499.53
2023-03-06T01:57:13.158Z,97491.09
2023-03-06T01:59:43.248Z,97507.47
2023-03-06T02:02:12.796Z,97503.25
2023-03-06T02:04:42.656Z,97512.22
2023-03-06T02:07:11.293Z,97509.84
2023-03-06T02:09:39.255Z,97507.47
2023-03-06T02:12:09.418Z,97506.44
2023-03-06T02:14:37.420Z,97508.13
2023-03-06T02:17:09.001Z,97512.22
2023-03-06T02:19:46.738Z,97506.44
2023-03-06T02:22:14.200Z,97512.22
2023-03-06T02:24:50.001Z,97503.94
2023-03-06T02:27:21.065Z,97506.31
2023-03-06T02:29:50.176Z,97508.59
2023-03-06T02:32:17.790Z,97508.47
2023-03-06T02:34:55.794Z,97503.59
2023-03-06T02:37:24.399Z,97498.59
2023-03-06T02:40:06.360Z,97509.63
2023-03-06T02:42:35.560Z,97504.63
2023-03-06T02:45:07.186Z,97499.63
2023-03-06T02:47:34.405Z,97505.19
2023-03-06T02:50:01.951Z,97504.38
2023-03-06T02:52:30.852Z,97498.47
2023-03-06T02:54:58.136Z,97504.38
2023-03-06T02:57:25.817Z,97506.78
2023-03-06T02:59:54.646Z,97504.19
2023-03-06T03:02:21.961Z,97501.53
2023-03-06T03:04:49.498Z,97505.28
2023-03-06T03:07:17.849Z,97496.88
2023-03-06T03:09:54.948Z,97502.44
2023-03-06T03:12:28.838Z,97497.69
2023-03-06T03:14:57.693Z,97504.94
2023-03-06T03:17:30.819Z,97505.63
2023-03-06T03:20:05.525Z,97505.41
2023-03-06T03:22:32.881Z,97504.59
2023-03-06T03:25:00.147Z,97511.31
2023-03-06T03:27:27.503Z,97502.25
2023-03-06T03:29:58.639Z,97506.66
2023-03-06T03:32:27.146Z,97500.41
2023-03-06T03:34:55.839Z,97500.28
2023-03-06T03:37:27.496Z,97504.94
2023-03-06T03:40:01.541Z,97502.00
2023-03-06T03:42:33.868Z,97502.91
2023-03-06T03:45:02.590Z,97511.19
2023-03-06T03:47:30.639Z,97512.69
2023-03-06T03:49:58.046Z,97517.44
2023-03-06T03:52:25.805Z,97514.84
2023-03-06T03:54:53.172Z,97515.41
2023-03-06T03:57:20.613Z,97514.59
2023-03-06T03:59:51.553Z,97516.19
2023-03-06T04:02:42.942Z,97511.09
2023-03-06T04:05:22.074Z,97510.19
2023-03-06T04:07:49.573Z,97515.84
2023-03-06T04:10:17.438Z,97506.53
2023-03-06T04:12:48.010Z,97506.66
2023-03-06T04:15:18.699Z,97505.19
2023-03-06T04:17:48.864Z,97517.56
2023-03-06T04:20:20.725Z,97508.34
2023-03-06T04:22:48.864Z,97510.75
2023-03-06T04:25:17.564Z,97509.03
2023-03-06T04:27:44.983Z,97509.72
2023-03-06T04:30:13.145Z,97508.69
2023-03-06T04:32:41.149Z,97507.22
2023-03-06T04:35:10.673Z,97502.91
2023-03-06T04:37:46.000Z,97509.34
2023-03-06T04:40:18.734Z,97515.06
2023-03-06T04:42:46.398Z,97509.25
2023-03-06T04:45:17.392Z,97510.59
2023-03-06T04:47:44.966Z,97512.19
2023-03-06T04:50:13.953Z,97511.97
2023-03-06T04:52:41.149Z,97517.91
2023-03-06T04:55:10.316Z,97510.41
2023-03-06T04:57:38.584Z,97508.56
2023-03-06T05:00:09.706Z,97509.91
2023-03-06T05:02:37.463Z,97520.59
2023-03-06T05:05:05.934Z,97516.97
2023-03-06T05:07:34.644Z,97511.97
2023-03-06T05:10:01.813Z,97516.84
2023-03-06T05:12:31.423Z,97516.75
2023-03-06T05:14:58.876Z,97524.47
2023-03-06T05:17:26.138Z,97518.69
2023-03-06T05:19:53.615Z,97526.75
2023-03-06T05:22:22.046Z,97527.41
2023-03-06T05:24:50.800Z,97517.19
2023-03-06T05:27:18.485Z,97517.84
2023-03-06T05:29:45.777Z,97519.44
2023-03-06T05:32:13.593Z,97528.78
2023-03-06T05:34:40.964Z,97535.25
2023-03-06T05:37:08.577Z,97530.72
2023-03-06T05:39:38.669Z,97524.09
2023-03-06T05:42:12.994Z,97531.25
2023-03-06T05:44:41.850Z,97536.44
2023-03-06T05:47:09.427Z,97527.00
2023-03-06T05:49:37.239Z,97530.94
2023-03-06T05:52:05.367Z,97536.81
2023-03-06T05:54:33.581Z,97536.53
2023-03-06T05:57:01.268Z,97537.41
2023-03-06T05:59:32.935Z,97528.88
2023-03-06T06:02:01.464Z,97540.66
2023-03-06T06:04:29.005Z,97548.72
2023-03-06T06:06:58.568Z,97538.69
2023-03-06T06:09:26.962Z,97538.69
2023-03-06T06:11:56.766Z,97540.03
2023-03-06T06:14:24.188Z,97540.47
2023-03-06T06:16:52.980Z,97534.06
2023-03-06T06:19:20.959Z,97543.56
2023-03-06T06:21:51.790Z,97540.16
2023-03-06T06:24:23.299Z,97537.00
2023-03-06T06:26:51.415Z,97543.34
2023-03-06T06:29:18.683Z,97536.25
2023-03-06T06:31:45.992Z,97533.59
2023-03-06T06:34:14.870Z,97547.06
2023-03-06T06:36:42.469Z,97545.41
2023-03-06T06:39:11.411Z,97547.72
2023-03-06T06:41:55.478Z,97552.34
2023-03-06T06:44:31.780Z,97547.97
2023-03-06T06:49:53.349Z,97551.59
2023-03-06T06:52:21.059Z,97555.66
2023-03-06T06:54:51.187Z,97556.53
2023-03-06T06:57:37.160Z,97556.00
2023-03-06T07:00:08.936Z,97559.56
2023-03-06T07:02:36.281Z,97556.41
2023-03-06T07:05:05.833Z,97555.06
2023-03-06T07:07:35.681Z,97567.13
2023-03-06T07:10:05.655Z,97556.47
2023-03-06T07:12:35.168Z,97556.34
2023-03-06T07:15:03.704Z,97548.59
2023-03-06T07:17:31.157Z,97546.06
2023-03-06T07:19:59.710Z,97570.22
2023-03-06T07:22:31.990Z,97556.34
2023-03-06T07:25:04.651Z,97560.78
2023-03-06T07:27:32.348Z,97560.41
2023-03-06T07:30:00.159Z,97564.47
2023-03-06T07:32:27.655Z,97559.34
2023-03-06T07:35:06.163Z,97569.06
2023-03-06T07:37:44.112Z,97574.06
2023-03-06T07:40:12.466Z,97567.50
2023-03-06T07:42:40.863Z,97575.44
2023-03-06T07:45:13.038Z,97559.97
2023-03-06T07:47:40.825Z,97582.75
2023-03-06T07:50:09.192Z,97570.22
2023-03-06T07:52:36.346Z,97573.00
2023-03-06T07:55:06.256Z,97572.09
2023-03-06T07:57:33.678Z,97576.84
2023-03-06T08:00:01.162Z,97584.78
2023-03-06T08:02:28.974Z,97575.63
2023-03-06T08:04:57.011Z,97579.03
2023-03-06T08:07:24.465Z,97576.41
2023-03-06T08:09:52.283Z,97582.09
2023-03-06T08:12:21.236Z,97575.06
2023-03-06T08:14:48.644Z,97584.97
2023-03-06T08:17:15.991Z,97592.25
2023-03-06T08:19:43.346Z,97584.34
2023-03-06T08:22:11.332Z,97589.66
2023-03-06T08:24:38.680Z,97584.91
2023-03-06T08:27:06.199Z,97590.97
2023-03-06T08:29:35.155Z,97594.44
2023-03-06T08:32:02.333Z,97589.91
2023-03-06T08:34:29.762Z,97587.09
2023-03-06T08:36:57.057Z,97593.66
2023-03-06T08:39:24.299Z,97584.31
2023-03-06T08:41:51.592Z,97589.38
2023-03-06T08:44:18.790Z,97589.59
2023-03-06T08:46:47.495Z,97599.53
2023-03-06T08:49:14.762Z,97593.09
2023-03-06T08:51:42.611Z,97591.94
2023-03-06T08:54:12.231Z,97601.72
2023-03-06T08:56:39.701Z,97600.84
2023-03-06T08:59:09.230Z,97600.66
2023-03-06T09:01:37.958Z,97600.31
2023-03-06T09:04:21.598Z,97599.50
2023-03-06T09:06:49.047Z,97602.81
2023-03-06T09:09:16.284Z,97604.38
2023-03-06T09:11:43.620Z,97605.19
2023-03-06T09:14:13.746Z,97609.09
2023-03-06T09:16:50.233Z,97605.31
2023-03-06T09:19:19.284Z,97604.66
2023-03-06T09:21:46.740Z,97603.44
2023-03-06T09:24:14.229Z,97607.81
2023-03-06T09:26:46.451Z,97610.34
2023-03-06T09:29:18.091Z,97612.44
2023-03-06T09:31:45.562Z,97616.91
2023-03-06T09:34:15.564Z,97619.44
2023-03-06T09:36:56.579Z,97619.28
2023-03-06T09:39:25.851Z,97621.47
2023-03-06T09:41:54.133Z,97611.56
2023-03-06T09:44:26.198Z,97618.13
2023-03-06T09:47:22.017Z,97626.81
2023-03-06T09:50:05.029Z,97623.28
2023-03-06T09:52:38.661Z,97637.81
2023-03-06T09:55:12.869Z,97636.53
2023-03-06T09:57:45.107Z,97631.25
2023-03-06T10:00:16.101Z,97634.72
2023-03-06T10:02:48.062Z,97632.75
2023-03-06T10:05:21.798Z,97618.47
2023-03-06T10:07:55.988Z,97625.50
2023-03-06T10:10:25.949Z,97630.16
2023-03-06T10:13:05.471Z,97622.88
2023-03-06T10:15:36.140Z,97634.84
2023-03-06T10:18:05.023Z,97630.75
2023-03-06T10:20:38.229Z,97638.78
2023-03-06T10:23:29.208Z,97631.88
2023-03-06T10:26:01.186Z,97625.94
2023-03-06T10:28:35.385Z,97645.50
2023-03-06T10:31:10.464Z,97620.88
2023-03-06T10:33:52.126Z,97645.50
2023-03-06T10:36:21.510Z,97635.66
2023-03-06T10:38:50.218Z,97640.25
2023-03-06T10:41:23.934Z,97635.06
2023-03-06T10:44:25.551Z,97644.31
2023-03-06T10:46:54.532Z,97656.69
2023-03-06T10:49:34.623Z,97640.56
2023-03-06T10:52:05.533Z,97632.75
2023-03-06T10:54:36.668Z,97622.47
2023-03-06T10:57:25.319Z,97640.63
2023-03-06T10:59:54.768Z,97645.41
2023-03-06T11:02:30.507Z,97640.78
2023-03-06T11:05:00.041Z,97643.06
2023-03-06T11:07:29.024Z,97653.91
2023-03-06T11:10:04.975Z,97636.25
2023-03-06T11:12:34.858Z,97651.28
2023-03-06T11:15:22.428Z,97649.56
2023-03-06T11:17:53.809Z,97645.72
2023-03-06T11:20:25.082Z,97658.34
2023-03-06T11:22:56.681Z,97645.06
2023-03-06T11:25:32.740Z,97650.50
2023-03-06T11:28:04.125Z,97656.19
2023-03-06T11:30:38.879Z,97657.22
2023-03-06T11:33:17.587Z,97642.19
2023-03-06T11:35:56.544Z,97654.78
2023-03-06T11:38:40.140Z,97650.59
2023-03-06T11:41:20.300Z,97652.75
2023-03-06T11:43:55.792Z,97645.34
2023-03-06T11:46:28.422Z,97654.59
2023-03-06T11:49:02.316Z,97649.03
2023-03-06T11:51:35.352Z,97646.63
2023-03-06T11:54:03.021Z,97653.75
2023-03-06T11:56:44.568Z,97645.81
2023-03-06T11:59:29.305Z,97642.91
2023-03-06T12:02:06.298Z,97654.09
2023-03-06T12:04:52.671Z,97648.69
2023-03-06T12:07:29.965Z,97657.06
2023-03-06T12:16:29.835Z,97663.56
2023-03-06T12:19:12.004Z,97657.59
2023-03-06T12:21:51.018Z,97667.28
2023-03-06T12:24:32.295Z,97670.03
2023-03-06T12:27:09.240Z,97666.47
2023-03-06T12:29:49.780Z,97670.81
2023-03-06T12:32:35.338Z,97657.22
2023-03-06T12:35:34.463Z,97674.81
2023-03-06T12:38:13.349Z,97676.25
2023-03-06T12:40:52.911Z,97677.91
2023-03-06T12:43:34.848Z,97684.34
2023-03-06T12:46:09.582Z,97680.75
2023-03-06T12:48:39.607Z,97684.03
2023-03-06T12:51:14.522Z,97677.97
2023-03-06T12:53:42.932Z,97679.53
2023-03-06T12:56:14.705Z,97677.06
2023-03-06T12:58:51.090Z,97663.28
2023-03-06T13:01:47.734Z,97667.81
2023-03-06T13:04:35.652Z,97675.09
2023-03-06T13:07:30.837Z,97677.38
2023-03-06T13:10:09.218Z,97690.88
2023-03-06T13:12:50.081Z,97679.78
2023-03-06T13:16:04.449Z,97697.97
2023-03-06T13:18:58.925Z,97705.38
2023-03-06T13:22:00.959Z,97694.13
2023-03-06T13:24:31.779Z,97703.34
2023-03-06T13:27:04.956Z,97706.66
2023-03-06T13:30:16.606Z,97700.44
2023-03-06T13:32:44.045Z,97714.72
2023-03-06T13:35:47.501Z,97709.28
2023-03-06T13:38:37.213Z,97700.91
2023-03-06T13:41:34.548Z,97713.28
2023-03-06T13:44:20.655Z,97716.97
2023-03-06T13:46:57.591Z,97718.81
2023-03-06T13:49:25.683Z,97715.59
2023-03-06T13:52:06.905Z,97724.75
2023-03-06T13:54:47.297Z,97715.84
2023-03-06T13:57:28.243Z,97727.16
2023-03-06T14:00:38.344Z,97726.44
2023-03-06T14:04:08.219Z,97730.00
2023-03-06T14:06:50.279Z,97724.63
2023-03-06T14:09:26.673Z,97731.25
2023-03-06T14:11:58.337Z,97733.34
2023-03-06T14:14:35.095Z,97735.78
2023-03-06T14:17:05.358Z,97739.78
2023-03-06T14:19:37.778Z,97735.91
2023-03-06T14:22:07.307Z,97740.75
2023-03-06T14:24:40.791Z,97734.63
2023-03-06T14:27:17.306Z,97746.16
2023-03-06T14:29:48.752Z,97742.97
2023-03-06T14:32:19.599Z,97747.00
2023-03-06T14:34:48.274Z,97742.00
2023-03-06T14:37:24.794Z,97752.06
2023-03-06T14:39:52.442Z,97763.69
2023-03-06T14:42:22.346Z,97766.13
2023-03-06T14:45:01.950Z,97760.09
2023-03-06T14:47:33.539Z,97769.41
2023-03-06T14:50:24.470Z,97766.94
2023-03-06T14:52:55.457Z,97766.28
2023-03-06T14:55:25.558Z,97775.84
2023-03-06T14:57:57.132Z,97785.41
2023-03-06T15:00:39.137Z,97795.66
2023-03-06T15:03:16.501Z,97795.09
2023-03-06T15:05:45.401Z,97796.34
2023-03-06T15:08:20.494Z,97794.84
2023-03-06T15:10:56.906Z,97792.25
2023-03-06T15:13:26.494Z,97793.75
2023-03-06T15:16:01.214Z,97799.56
2023-03-06T15:18:34.111Z,97799.31
2023-03-06T15:21:14.986Z,97803.66
2023-03-06T15:23:43.792Z,97803.63
2023-03-06T15:26:29.603Z,97800.00
2023-03-06T15:29:09.434Z,97810.69
2023-03-06T15:31:42.732Z,97812.75
2023-03-06T15:34:24.172Z,97819.03
2023-03-06T15:36:56.949Z,97812.06
2023-03-06T15:39:32.945Z,97811.84
2023-03-06T15:42:02.585Z,97816.84
2023-03-06T15:44:32.741Z,97828.13
2023-03-06T15:47:10.190Z,97824.69
2023-03-06T15:49:38.770Z,97832.56
2023-03-06T15:52:06.223Z,97828.69
2023-03-06T15:54:33.547Z,97838.59
2023-03-06T15:57:10.276Z,97836.31
2023-03-06T15:59:44.354Z,97830.97
2023-03-06T16:02:16.429Z,97833.69
2023-03-06T16:04:44.156Z,97844.75
2023-03-06T16:07:11.517Z,97831.53
2023-03-06T16:09:45.261Z,97859.66
2023-03-06T16:12:19.406Z,97856.81
2023-03-06T16:14:50.120Z,97861.44
2023-03-06T16:17:18.903Z,97860.28
2023-03-06T16:19:46.126Z,97865.75
2023-03-06T16:22:13.909Z,97871.69
2023-03-06T16:24:43.467Z,97864.53
2023-03-06T16:27:17.305Z,97875.91
2023-03-06T16:29:44.856Z,97873.75
2023-03-06T16:32:14.902Z,97884.19
2023-03-06T16:34:46.703Z,97890.78
2023-03-06T16:37:14.306Z,97887.34
2023-03-06T16:39:41.852Z,97889.56
2023-03-06T16:42:09.427Z,97893.53
2023-03-06T16:44:36.817Z,97886.72
2023-03-06T16:47:04.273Z,97901.03
2023-03-06T16:49:31.946Z,97900.47
2023-03-06T16:52:00.784Z,97906.47
2023-03-06T16:54:28.096Z,97896.94
2023-03-06T16:56:55.481Z,97905.59
2023-03-06T16:59:23.856Z,97904.41
2023-03-06T17:01:51.157Z,97911.03
2023-03-06T17:04:20.922Z,97911.25
2023-03-06T17:06:59.491Z,97917.06
2023-03-06T17:09:33.971Z,97912.38
2023-03-06T17:12:13.803Z,97908.03
2023-03-06T17:14:43.999Z,97918.28
2023-03-06T17:17:17.254Z,97914.28
2023-03-06T17:19:47.292Z,97917.59
2023-03-06T17:22:15.922Z,97921.31
2023-03-06T17:24:45.187Z,97920.75
2023-03-06T17:27:15.790Z,97924.13
2023-03-06T17:29:46.048Z,97924.13
2023-03-06T17:32:13.425Z,97922.56
2023-03-06T17:34:50.006Z,97931.88
2023-03-06T17:37:17.573Z,97940.19
2023-03-06T17:39:46.782Z,97945.19
2023-03-06T17:42:14.228Z,97941.78
2023-03-06T17:44:41.885Z,97940.19
2023-03-06T17:47:09.180Z,97940.84
2023-03-06T17:49:36.457Z,97949.06
2023-03-06T17:52:09.841Z,97947.59
2023-03-06T17:54:37.411Z,97951.00
2023-03-06T17:57:06.432Z,97953.59
2023-03-06T17:59:46.923Z,97953.34
2023-03-06T18:02:17.856Z,97956.41
2023-03-06T18:04:51.198Z,97958.66
2023-03-06T18:07:33.611Z,97951.25
2023-03-06T18:10:03.860Z,97958.66
2023-03-06T18:12:38.471Z,97963.84
2023-03-06T18:15:06.545Z,97966.47
2023-03-06T18:17:33.944Z,97954.06
2023-03-06T18:20:20.269Z,97959.28
2023-03-06T18:22:47.570Z,97960.06
2023-03-06T18:25:18.029Z,97972.09
2023-03-06T18:27:46.915Z,97966.50
2023-03-06T18:30:14.724Z,97967.72
2023-03-06T18:32:44.899Z,97969.41
2023-03-06T18:35:15.264Z,97967.13
2023-03-06T18:37:52.318Z,97970.53
2023-03-06T18:40:20.070Z,97978.25
2023-03-06T18:42:52.034Z,97990.53
2023-03-06T18:45:19.967Z,97982.44
2023-03-06T18:47:53.137Z,97978.44
2023-03-06T18:50:20.786Z,97978.56
2023-03-06T18:52:57.105Z,97984.53
2023-03-06T18:55:24.574Z,97983.25
2023-03-06T18:58:21.319Z,97981.16
2023-03-06T19:00:52.146Z,97987.25
2023-03-06T19:03:21.477Z,97991.78
2023-03-06T19:05:49.613Z,97984.66
2023-03-06T19:08:18.491Z,97995.56
2023-03-06T19:10:47.117Z,98001.56
2023-03-06T19:13:15.963Z,97989.97
2023-03-06T19:15:50.452Z,97984.97
2023-03-06T19:18:27.070Z,97993.28
2023-03-06T19:20:57.751Z,97996.19
2023-03-06T19:23:31.021Z,98001.38
2023-03-06T19:25:59.359Z,98012.50
2023-03-06T19:28:28.279Z,98001.38
2023-03-06T19:30:55.650Z,98017.50
2023-03-06T19:33:23.231Z,98006.06
2023-03-06T19:35:50.535Z,98019.19
2023-03-06T19:38:17.694Z,98004.28
2023-03-06T19:40:49.595Z,98011.19
2023-03-06T19:43:16.941Z,98008.19
2023-03-06T19:45:45.735Z,98017.16
2023-03-06T19:48:13.662Z,98017.47
2023-03-06T19:50:41.185Z,98025.75
2023-03-06T19:53:11.343Z,98002.38
2023-03-06T19:55:38.949Z,98012.69
2023-03-06T19:58:06.640Z,98010.28
2023-03-06T20:00:34.646Z,98016.88
2023-03-06T20:03:06.124Z,98013.47
2023-03-06T20:05:33.593Z,98017.88
2023-03-06T20:08:04.143Z,98018.88
2023-03-06T20:10:56.278Z,98022.16
2023-03-06T20:13:29.995Z,98016.56
2023-03-06T20:15:58.063Z,98021.78
2023-03-06T20:18:26.968Z,98017.56
2023-03-06T20:20:58.553Z,98018.16
2023-03-06T20:23:29.097Z,98020.00
2023-03-06T20:25:56.703Z,98020.78
2023-03-06T20:28:42.661Z,98007.28
2023-03-06T20:31:11.730Z,98014.56
2023-03-06T20:33:40.600Z,98019.69
2023-03-06T20:36:12.346Z,98018.47
2023-03-06T20:38:39.615Z,98023.97
2023-03-06T20:41:08.931Z,98018.28
2023-03-06T20:43:36.429Z,98024.88
2023-03-06T20:46:05.997Z,98025.50
2023-03-06T20:48:33.583Z,98016.88
2023-03-06T20:51:12.359Z,98017.78
2023-03-06T20:53:43.895Z,98015.50
2023-03-06T20:56:11.829Z,98027.97
2023-03-06T20:58:39.136Z,98029.69
2023-03-06T21:01:06.598Z,98029.56
2023-03-06T21:03:33.993Z,98032.78
2023-03-06T21:06:01.282Z,98027.47
2023-03-06T21:08:31.485Z,98038.38
2023-03-06T21:10:58.785Z,98034.16
2023-03-06T21:13:26.379Z,98028.47
2023-03-06T21:15:53.626Z,98035.88
2023-03-06T21:18:20.941Z,98035.78
2023-03-06T21:20:48.283Z,98035.78
2023-03-06T21:23:15.552Z,98037.16
2023-03-06T21:25:48.980Z,98023.06
2023-03-06T21:28:16.576Z,98032.56
2023-03-06T21:30:44.196Z,98039.16
2023-03-06T21:33:11.912Z,98026.00
2023-03-06T21:35:39.578Z,98021.00
2023-03-06T21:38:07.096Z,98025.28
2023-03-06T21:40:34.683Z,98032.06
2023-03-06T21:43:04.614Z,98045.19
2023-03-06T21:45:32.174Z,98041.47
2023-03-06T21:48:02.400Z,98037.16
2023-03-06T21:50:35.337Z,98035.38
2023-03-06T21:53:05.986Z,98042.88
2023-03-06T21:55:33.178Z,98027.06
2023-03-06T21:58:00.463Z,98042.06
2023-03-06T22:00:29.175Z,98038.56
2023-03-06T22:02:56.447Z,98046.28
2023-03-06T22:05:25.224Z,98043.28
2023-03-06T22:07:52.558Z,98049.25
2023-03-06T22:10:20.161Z,98048.66
2023-03-06T22:12:47.925Z,98046.06
2023-03-06T22:15:15.368Z,98043.06
2023-03-06T22:17:44.077Z,98046.16
2023-03-06T22:20:13.224Z,98048.38
2023-03-06T22:22:40.418Z,98041.16
2023-03-06T22:25:09.326Z,98041.56
2023-03-06T22:27:36.636Z,98041.06
2023-03-06T22:30:04.900Z,98042.38
2023-03-06T22:32:32.460Z,98042.38
2023-03-06T22:35:01.060Z,98035.75
2023-03-06T22:37:28.379Z,98040.75
2023-03-06T22:39:55.615Z,98043.03
2023-03-06T22:42:23.044Z,98036.75
2023-03-06T22:44:50.241Z,98036.56
2023-03-06T22:47:20.470Z,98032.53
2023-03-06T22:49:47.793Z,98033.34
2023-03-06T22:52:19.575Z,98031.16
2023-03-06T22:54:46.822Z,98044.56
2023-03-06T22:57:19.702Z,98039.88
2023-03-06T22:59:49.651Z,98047.38
2023-03-06T23:02:16.922Z,98035.25
2023-03-06T23:04:44.661Z,98039.66
2023-03-06T23:07:11.907Z,98036.56
2023-03-06T23:09:40.476Z,98034.06
2023-03-06T23:12:26.294Z,98029.16
2023-03-06T23:15:15.478Z,98031.88
2023-03-06T23:18:05.361Z,98025.06
2023-03-06T23:20:51.269Z,98032.16
2023-03-06T23:23:38.022Z,98035.25
2023-03-06T23:26:08.930Z,98029.75
2023-03-06T23:28:36.372Z,98023.78
2023-03-06T23:31:07.811Z,98031.28
2023-03-06T23:33:35.456Z,98029.56
2023-03-06T23:36:03.379Z,98031.44
2023-03-06T23:38:30.714Z,98027.56
2023-03-06T23:41:02.161Z,98025.25
2023-03-06T23:43:31.656Z,98024.06
2023-03-06T23:45:59.157Z,98025.66
2023-03-06T23:48:27.507Z,98034.31
2023-03-06T23:50:58.312Z,98029.34
2023-03-06T23:53:25.807Z,98032.75
2023-03-06T23:55:53.041Z,98026.25
2023-03-06T23:58:23.401Z,98030.56
